Time;durP1;ratioP1;P1;durP2;ratioP2;P2;SDS_P1;SDS_P2;PMS_P1;PMS_P2;Temp;Humidity;BMP_temperature;BMP_pressure;BME280_temperature;BME280_humidity;BME280_pressure;Samples;Min_cycle;Max_cycle;Signal;HPM_P1;HPM_P2
2021/12/24 00:00:11;;;;;;;57.85;53.03;;;;;;;;;;5115124;28;20196;-83
2021/12/24 00:02:38;;;;;;;56.13;51.58;;;;;;;;;;5096968;28;20197;-82
2021/12/24 00:05:06;;;;;;;55.20;50.85;;;;;;;;;;5114677;28;20647;-82
2021/12/24 00:07:35;;;;;;;50.03;46.60;;;;;;;;;;5115007;28;20208;-82
2021/12/24 00:10:03;;;;;;;60.15;55.22;;;;;;;;;;5114880;28;20594;-83
2021/12/24 00:12:33;;;;;;;55.28;50.70;;;;;;;;;;5114729;28;20219;-83
2021/12/24 00:15:09;;;;;;;54.85;50.30;;;;;;;;;;5114255;28;20236;-83
2021/12/24 00:17:38;;;;;;;56.58;52.03;;;;;;;;;;5114192;28;20673;-83
2021/12/24 00:20:30;;;;;;;57.50;52.85;;;;;;;;;;5114223;28;20203;-83
2021/12/24 00:35:02;;;;;;;56.92;51.75;;;;;;;;;;5114295;28;20626;-83
2021/12/24 00:37:01;;;;;;;51.63;48.05;;;;;;;;;;5114234;28;20215;-82
2021/12/24 00:39:31;;;;;;;57.63;53.05;;;;;;;;;;5114183;28;20228;-83
2021/12/24 00:41:59;;;;;;;55.33;50.88;;;;;;;;;;5114247;28;20196;-83
2021/12/24 00:44:26;;;;;;;53.47;50.08;;;;;;;;;;5113994;28;20196;-83
2021/12/24 00:46:53;;;;;;;55.30;51.50;;;;;;;;;;5113968;28;20500;-82
2021/12/24 00:49:21;;;;;;;52.05;48.65;;;;;;;;;;5113820;28;20186;-83
2021/12/24 00:52:06;;;;;;;57.72;53.80;;;;;;;;;;5113704;28;20191;-82
2021/12/24 00:57:20;;;;;;;58.05;53.97;;;;;;;;;;5114023;28;20191;-84
2021/12/24 00:59:48;;;;;;;54.05;50.22;;;;;;;;;;5113504;28;20208;-83
2021/12/24 01:02:15;;;;;;;62.92;56.53;;;;;;;;;;5113893;28;20223;-83
2021/12/24 01:04:42;;;;;;;50.42;47.08;;;;;;;;;;5113912;28;20287;-83
2021/12/24 01:07:10;;;;;;;60.17;55.13;;;;;;;;;;5113480;28;20253;-83
2021/12/24 01:09:39;;;;;;;66.47;60.75;;;;;;;;;;5113775;28;20188;-83
2021/12/24 01:12:07;;;;;;;53.88;50.25;;;;;;;;;;5113601;28;20208;-83
2021/12/24 01:14:34;;;;;;;50.95;47.97;;;;;;;;;;5113127;28;20735;-83
2021/12/24 01:17:10;;;;;;;53.78;49.53;;;;;;;;;;5113588;28;20237;-83
2021/12/24 01:19:41;;;;;;;57.67;52.63;;;;;;;;;;5113562;28;20216;-83
2021/12/24 01:25:02;;;;;;;56.53;51.97;;;;;;;;;;5112010;28;20207;-83
2021/12/24 01:27:51;;;;;;;51.25;47.60;;;;;;;;;;5112671;28;20752;-83
2021/12/24 01:38:37;;;;;;;57.10;52.78;;;;;;;;;;5112794;28;20577;-83
2021/12/24 01:41:19;;;;;;;54.55;50.50;;;;;;;;;;5113143;28;20187;-82
2021/12/24 01:43:45;;;;;;;64.20;58.95;;;;;;;;;;5112498;28;20213;-83
2021/12/24 01:46:13;;;;;;;58.58;54.00;;;;;;;;;;5112773;28;20188;-82
2021/12/24 01:48:42;;;;;;;58.60;53.78;;;;;;;;;;5113087;28;20222;-83
2021/12/24 01:51:09;;;;;;;62.42;56.90;;;;;;;;;;5094465;28;20634;-83
2021/12/24 01:53:37;;;;;;;59.08;54.33;;;;;;;;;;5094855;28;20219;-83
2021/12/24 01:56:06;;;;;;;61.55;56.72;;;;;;;;;;5112897;28;20205;-82
2021/12/24 01:58:33;;;;;;;53.83;50.13;;;;;;;;;;5112530;28;20235;-83
2021/12/24 02:01:01;;;;;;;68.78;62.38;;;;;;;;;;5112781;28;20254;-83
2021/12/24 02:03:28;;;;;;;54.58;51.08;;;;;;;;;;5112537;28;20212;-83
2021/12/24 02:05:56;;;;;;;57.67;53.03;;;;;;;;;;5112533;28;20189;-83
2021/12/24 02:08:23;;;;;;;52.95;48.55;;;;;;;;;;5112819;28;20192;-83
2021/12/24 02:10:51;;;;;;;57.83;53.55;;;;;;;;;;5112508;28;20634;-83
2021/12/24 02:13:21;;;;;;;57.53;53.22;;;;;;;;;;5112746;28;20244;-83
2021/12/24 02:16:03;;;;;;;66.90;61.17;;;;;;;;;;5111967;28;20238;-83
2021/12/24 02:28:15;;;;;;;57.90;53.80;;;;;;;;;;5112049;28;20689;-83
2021/12/24 02:29:52;;;;;;;60.22;55.33;;;;;;;;;;5112249;28;20249;-83
2021/12/24 02:32:19;;;;;;;71.72;65.60;;;;;;;;;;5112391;28;20186;-83
2021/12/24 02:34:47;;;;;;;59.58;54.88;;;;;;;;;;5112420;28;20191;-83
2021/12/24 02:37:15;;;;;;;61.50;56.83;;;;;;;;;;5112291;28;20195;-83
2021/12/24 02:39:43;;;;;;;71.82;64.50;;;;;;;;;;5112137;28;20637;-82
2021/12/24 02:42:11;;;;;;;59.03;54.70;;;;;;;;;;5112519;28;20238;-82
2021/12/24 02:44:39;;;;;;;62.00;57.13;;;;;;;;;;5112056;28;20520;-82
2021/12/24 02:47:14;;;;;;;57.10;53.17;;;;;;;;;;5112206;28;20639;-83
2021/12/24 02:55:15;;;;;;;64.63;59.03;;;;;;;;;;5112145;28;20202;-83
2021/12/24 02:57:43;;;;;;;58.70;53.80;;;;;;;;;;5115080;28;20694;-83
2021/12/24 03:00:15;;;;;;;66.40;60.33;;;;;;;;;;5116389;28;20213;-82
2021/12/24 03:02:44;;;;;;;71.45;64.07;;;;;;;;;;5115914;28;20442;-82
2021/12/24 03:05:12;;;;;;;63.97;58.17;;;;;;;;;;5115981;28;20189;-83
2021/12/24 03:07:41;;;;;;;52.15;48.30;;;;;;;;;;5116337;28;20247;-82
2021/12/24 03:10:14;;;;;;;63.33;57.83;;;;;;;;;;5115972;28;20192;-83
2021/12/24 03:12:43;;;;;;;57.83;53.05;;;;;;;;;;5099071;28;20217;-83
2021/12/24 03:15:11;;;;;;;58.63;53.70;;;;;;;;;;5115437;28;20237;-83
2021/12/24 03:17:39;;;;;;;62.30;56.80;;;;;;;;;;5116108;28;20193;-83
2021/12/24 03:20:10;;;;;;;58.78;54.15;;;;;;;;;;5115405;28;20556;-84
2021/12/24 03:22:47;;;;;;;54.17;50.03;;;;;;;;;;5115978;28;20193;-84
2021/12/24 03:25:16;;;;;;;60.30;55.00;;;;;;;;;;5115580;28;20198;-84
2021/12/24 03:27:43;;;;;;;61.33;55.75;;;;;;;;;;5115619;28;20191;-84
2021/12/24 03:30:11;;;;;;;62.45;56.88;;;;;;;;;;5115717;28;20543;-83
2021/12/24 03:32:38;;;;;;;54.33;50.17;;;;;;;;;;5115369;28;20186;-83
2021/12/24 03:35:06;;;;;;;58.53;53.67;;;;;;;;;;5097414;28;20185;-82
2021/12/24 03:37:34;;;;;;;63.05;57.10;;;;;;;;;;5115673;28;20190;-83
2021/12/24 03:40:01;;;;;;;55.25;50.97;;;;;;;;;;5115339;28;20215;-83
2021/12/24 03:42:30;;;;;;;51.72;47.83;;;;;;;;;;5115450;28;20249;-83
2021/12/24 03:45:06;;;;;;;64.03;57.67;;;;;;;;;;5115452;28;20201;-83
2021/12/24 03:47:39;;;;;;;61.30;55.58;;;;;;;;;;5115127;28;20223;-83
2021/12/24 03:50:10;;;;;;;61.25;55.92;;;;;;;;;;5115330;28;20221;-83
2021/12/24 03:53:01;;;;;;;65.30;58.92;;;;;;;;;;5080410;28;20202;-83
2021/12/24 03:55:26;;;;;;;54.73;50.47;;;;;;;;;;5114816;28;20208;-83
2021/12/24 03:57:55;;;;;;;61.67;55.97;;;;;;;;;;5115004;28;20992;-83
2021/12/24 04:00:24;;;;;;;55.55;51.33;;;;;;;;;;5115100;28;20217;-83
2021/12/24 04:02:51;;;;;;;60.53;54.87;;;;;;;;;;5115154;28;20576;-83
2021/12/24 04:05:19;;;;;;;56.90;51.85;;;;;;;;;;5115079;28;20436;-83
2021/12/24 04:07:46;;;;;;;57.00;52.45;;;;;;;;;;5114412;28;20642;-83
2021/12/24 04:10:23;;;;;;;61.85;56.10;;;;;;;;;;5114865;28;20243;-83
2021/12/24 04:12:50;;;;;;;64.65;58.50;;;;;;;;;;5115001;28;20209;-83
2021/12/24 04:15:19;;;;;;;52.83;48.83;;;;;;;;;;5092488;28;20234;-83
2021/12/24 04:17:48;;;;;;;48.72;45.28;;;;;;;;;;5092783;28;20206;-83
2021/12/24 04:25:46;;;;;;;48.40;45.03;;;;;;;;;;5094111;28;20205;-82
2021/12/24 04:28:13;;;;;;;63.60;57.97;;;;;;;;;;5094050;28;20258;-84
2021/12/24 04:30:46;;;;;;;58.20;52.92;;;;;;;;;;5093883;28;20186;-83
2021/12/24 04:33:20;;;;;;;60.50;55.00;;;;;;;;;;5094174;28;20230;-84
2021/12/24 04:35:57;;;;;;;51.75;47.80;;;;;;;;;;5093978;28;20187;-82
2021/12/24 04:52:24;;;;;;;58.17;53.42;;;;;;;;;;5093674;28;20229;-83
2021/12/24 05:03:30;;;;;;;47.30;43.90;;;;;;;;;;5050993;28;20261;-83
2021/12/24 05:06:08;;;;;;;55.57;50.93;;;;;;;;;;5051017;28;20201;-83
2021/12/24 05:08:42;;;;;;;48.15;44.88;;;;;;;;;;5050851;28;20504;-83
2021/12/24 05:11:13;;;;;;;52.45;48.20;;;;;;;;;;5050720;28;20205;-83
2021/12/24 05:13:41;;;;;;;57.88;52.63;;;;;;;;;;5034006;28;20642;-83
2021/12/24 05:16:18;;;;;;;56.53;51.35;;;;;;;;;;5050539;28;20230;-83
2021/12/24 05:21:32;;;;;;;56.97;51.63;;;;;;;;;;5050087;28;20243;-83
2021/12/24 05:21:54;;;;;;;61.72;55.40;;;;;;;;;;5050718;28;20191;-84
2021/12/24 05:24:23;;;;;;;52.13;48.13;;;;;;;;;;5050563;28;20572;-83
2021/12/24 05:26:51;;;;;;;47.78;44.05;;;;;;;;;;5050659;28;20195;-83
2021/12/24 05:29:19;;;;;;;49.30;45.60;;;;;;;;;;5050640;28;20283;-83
2021/12/24 05:31:46;;;;;;;48.03;44.70;;;;;;;;;;5050394;28;20240;-83
2021/12/24 05:34:17;;;;;;;47.90;44.53;;;;;;;;;;5050475;28;20200;-83
2021/12/24 05:36:45;;;;;;;48.80;45.53;;;;;;;;;;5051785;28;20203;-83
2021/12/24 05:39:14;;;;;;;49.75;45.67;;;;;;;;;;5052622;28;20235;-83
2021/12/24 05:41:42;;;;;;;43.92;41.13;;;;;;;;;;5052841;28;20203;-83
2021/12/24 05:44:14;;;;;;;47.65;44.28;;;;;;;;;;5052580;28;20253;-83
2021/12/24 05:46:42;;;;;;;47.17;43.78;;;;;;;;;;5052509;28;20289;-83
2021/12/24 05:49:09;;;;;;;46.70;43.97;;;;;;;;;;5052325;28;20189;-83
2021/12/24 05:51:38;;;;;;;46.63;43.50;;;;;;;;;;5052160;28;20638;-83
2021/12/24 05:54:05;;;;;;;47.53;44.13;;;;;;;;;;5052479;28;20606;-84
2021/12/24 05:56:33;;;;;;;50.83;46.90;;;;;;;;;;5052682;28;20191;-83
2021/12/24 05:59:00;;;;;;;48.15;44.42;;;;;;;;;;5052061;28;20203;-84
2021/12/24 06:01:28;;;;;;;54.70;49.90;;;;;;;;;;5052080;28;20184;-83
2021/12/24 06:03:55;;;;;;;50.05;46.67;;;;;;;;;;5051947;28;20223;-83
2021/12/24 06:06:22;;;;;;;53.70;49.78;;;;;;;;;;5052499;28;20550;-83
2021/12/24 06:08:51;;;;;;;51.75;47.75;;;;;;;;;;5051964;28;20633;-83
2021/12/24 06:11:19;;;;;;;54.53;50.13;;;;;;;;;;5052288;28;20198;-83
2021/12/24 06:13:51;;;;;;;52.78;48.25;;;;;;;;;;5057904;28;20224;-83
2021/12/24 06:16:19;;;;;;;47.97;44.50;;;;;;;;;;5092029;28;20698;-83
2021/12/24 06:18:46;;;;;;;56.42;51.28;;;;;;;;;;5092341;28;20191;-83
2021/12/24 06:21:14;;;;;;;53.25;48.60;;;;;;;;;;5091880;28;20237;-83
2021/12/24 06:23:43;;;;;;;51.30;47.05;;;;;;;;;;5091912;28;20609;-83
2021/12/24 06:26:12;;;;;;;50.53;46.10;;;;;;;;;;5092123;28;20234;-83
2021/12/24 06:28:39;;;;;;;50.65;46.50;;;;;;;;;;5091995;28;20567;-82
2021/12/24 06:31:07;;;;;;;47.13;43.55;;;;;;;;;;5098741;28;20193;-83
2021/12/24 06:33:34;;;;;;;46.88;43.28;;;;;;;;;;5116567;28;20204;-83
2021/12/24 06:36:01;;;;;;;48.90;45.50;;;;;;;;;;5116836;28;20186;-83
2021/12/24 06:38:29;;;;;;;59.57;53.47;;;;;;;;;;5116607;28;20211;-83
2021/12/24 06:40:56;;;;;;;49.87;46.07;;;;;;;;;;5116299;28;20932;-83
2021/12/24 06:43:25;;;;;;;57.70;52.38;;;;;;;;;;5116488;28;20428;-82
2021/12/24 06:45:53;;;;;;;60.75;54.47;;;;;;;;;;5116273;28;20287;-82
2021/12/24 06:48:21;;;;;;;55.95;50.55;;;;;;;;;;5116503;28;20243;-83
2021/12/24 06:50:50;;;;;;;55.17;49.53;;;;;;;;;;5116123;28;20204;-83
2021/12/24 06:53:17;;;;;;;57.65;51.47;;;;;;;;;;5116388;28;20501;-82
2021/12/24 06:55:45;;;;;;;60.67;54.23;;;;;;;;;;5097622;28;20708;-81
2021/12/24 06:58:12;;;;;;;49.00;44.90;;;;;;;;;;5116135;28;20431;-83
2021/12/24 07:00:41;;;;;;;53.05;48.30;;;;;;;;;;5116015;28;20631;-82
2021/12/24 07:03:08;;;;;;;48.20;44.25;;;;;;;;;;5116319;28;20186;-82
2021/12/24 07:05:36;;;;;;;57.13;51.40;;;;;;;;;;5115883;28;20182;-83
2021/12/24 07:08:03;;;;;;;58.10;52.28;;;;;;;;;;5115999;28;20447;-82
2021/12/24 07:10:30;;;;;;;59.15;53.05;;;;;;;;;;5115826;28;20194;-83
2021/12/24 07:12:58;;;;;;;62.90;55.93;;;;;;;;;;5115729;28;20179;-82
2021/12/24 07:15:25;;;;;;;48.97;44.78;;;;;;;;;;5115212;28;20486;-83
2021/12/24 07:17:54;;;;;;;58.03;51.60;;;;;;;;;;5115719;28;20190;-82
2021/12/24 07:20:21;;;;;;;52.25;47.33;;;;;;;;;;5115598;28;20214;-83
2021/12/24 07:22:49;;;;;;;48.20;43.78;;;;;;;;;;5115486;28;20206;-81
2021/12/24 07:25:16;;;;;;;56.05;50.25;;;;;;;;;;5115515;28;20195;-82
2021/12/24 07:27:43;;;;;;;56.50;50.90;;;;;;;;;;5115548;28;20191;-82
2021/12/24 07:30:12;;;;;;;57.28;51.65;;;;;;;;;;5115601;28;20414;-81
2021/12/24 07:32:40;;;;;;;63.90;57.22;;;;;;;;;;5115479;28;20231;-82
2021/12/24 07:35:09;;;;;;;57.47;51.25;;;;;;;;;;5115636;28;20182;-81
2021/12/24 07:37:37;;;;;;;55.25;48.67;;;;;;;;;;5115436;28;20245;-81
2021/12/24 07:40:05;;;;;;;55.33;50.53;;;;;;;;;;5115363;28;20294;-90
2021/12/24 07:42:32;;;;;;;52.43;47.43;;;;;;;;;;5114598;28;20291;-82
2021/12/24 07:45:00;;;;;;;50.83;45.63;;;;;;;;;;5114970;28;20444;-82
2021/12/24 07:47:36;;;;;;;49.17;44.60;;;;;;;;;;5115341;28;20193;-82
2021/12/24 07:50:17;;;;;;;49.78;45.22;;;;;;;;;;5114925;28;20204;-81
2021/12/24 07:52:45;;;;;;;48.57;44.40;;;;;;;;;;5115025;28;20197;-81
2021/12/24 07:55:12;;;;;;;54.30;48.90;;;;;;;;;;5114914;28;20943;-81
2021/12/24 07:57:40;;;;;;;46.78;43.17;;;;;;;;;;5114798;28;20435;-81
2021/12/24 08:00:08;;;;;;;59.90;54.10;;;;;;;;;;5114994;28;20236;-81
2021/12/24 08:02:35;;;;;;;55.53;50.10;;;;;;;;;;5114742;28;20446;-81
2021/12/24 08:05:03;;;;;;;51.58;47.50;;;;;;;;;;5114600;28;20905;-82
2021/12/24 08:07:30;;;;;;;60.85;54.30;;;;;;;;;;5096793;28;20200;-82
2021/12/24 08:09:59;;;;;;;50.57;45.73;;;;;;;;;;5114749;28;20201;-82
2021/12/24 08:12:26;;;;;;;47.97;43.53;;;;;;;;;;5114791;28;20431;-82
2021/12/24 08:14:54;;;;;;;44.73;41.37;;;;;;;;;;5114152;28;20490;-81
2021/12/24 08:17:21;;;;;;;44.73;41.17;;;;;;;;;;5114429;28;20918;-81
2021/12/24 08:19:48;;;;;;;46.88;42.47;;;;;;;;;;5114262;28;20493;-82
2021/12/24 08:22:16;;;;;;;46.50;42.40;;;;;;;;;;5114407;28;20267;-82
2021/12/24 08:24:43;;;;;;;43.88;40.30;;;;;;;;;;5114303;28;20410;-79
2021/12/24 08:27:12;;;;;;;44.20;40.27;;;;;;;;;;5114204;28;20187;-82
2021/12/24 08:29:39;;;;;;;48.77;44.23;;;;;;;;;;5114480;28;20448;-81
2021/12/24 08:32:07;;;;;;;40.97;37.95;;;;;;;;;;5113997;28;20932;-81
2021/12/24 08:34:34;;;;;;;48.93;44.63;;;;;;;;;;5114128;28;20213;-81
2021/12/24 08:37:02;;;;;;;52.53;47.20;;;;;;;;;;5113974;28;21292;-81
2021/12/24 08:39:30;;;;;;;45.67;41.17;;;;;;;;;;5114028;28;20494;-81
2021/12/24 08:41:57;;;;;;;52.70;47.15;;;;;;;;;;5114309;28;20465;-81
2021/12/24 08:44:28;;;;;;;50.17;45.38;;;;;;;;;;5113619;28;20727;-80
2021/12/24 08:46:55;;;;;;;43.35;39.60;;;;;;;;;;5114143;28;20190;-80
2021/12/24 08:49:26;;;;;;;50.33;45.57;;;;;;;;;;5113998;28;20196;-81
2021/12/24 08:51:53;;;;;;;40.43;36.57;;;;;;;;;;5113738;28;20493;-84
2021/12/24 08:54:22;;;;;;;55.57;50.10;;;;;;;;;;5113002;28;20436;-81
2021/12/24 08:56:49;;;;;;;46.40;42.20;;;;;;;;;;5113612;28;20508;-81
2021/12/24 08:59:17;;;;;;;43.83;39.83;;;;;;;;;;5113785;28;20447;-82
2021/12/24 09:01:45;;;;;;;44.27;40.60;;;;;;;;;;5113518;28;20488;-83
2021/12/24 09:04:13;;;;;;;52.03;46.73;;;;;;;;;;5113760;28;20411;-83
2021/12/24 09:06:41;;;;;;;42.73;39.00;;;;;;;;;;5113602;28;20408;-82
2021/12/24 09:09:10;;;;;;;42.30;38.37;;;;;;;;;;5113590;28;20719;-85
2021/12/24 09:11:38;;;;;;;38.90;35.70;;;;;;;;;;5113306;28;20421;-84
2021/12/24 09:14:05;;;;;;;34.03;31.55;;;;;;;;;;5113161;28;20486;-80
2021/12/24 09:16:34;;;;;;;35.67;32.67;;;;;;;;;;5113587;28;20194;-83
2021/12/24 09:19:07;;;;;;;32.73;29.57;;;;;;;;;;5113226;28;20468;-82
2021/12/24 09:21:35;;;;;;;35.27;31.50;;;;;;;;;;5113221;28;20455;-81
2021/12/24 09:24:06;;;;;;;40.20;35.80;;;;;;;;;;5113436;28;20440;-83
2021/12/24 09:26:33;;;;;;;35.27;31.83;;;;;;;;;;5113468;28;20410;-84
2021/12/24 09:29:01;;;;;;;35.13;31.33;;;;;;;;;;5113286;28;20402;-83
2021/12/24 09:31:28;;;;;;;43.07;36.17;;;;;;;;;;5113274;28;20420;-84
2021/12/24 09:33:56;;;;;;;36.87;32.97;;;;;;;;;;5113463;28;20764;-83
2021/12/24 09:36:27;;;;;;;37.25;33.30;;;;;;;;;;5112998;28;20917;-84
2021/12/24 09:38:56;;;;;;;28.87;26.37;;;;;;;;;;5113363;28;20252;-82
2021/12/24 09:41:24;;;;;;;38.50;34.33;;;;;;;;;;5113003;28;20454;-84
2021/12/24 09:43:52;;;;;;;37.35;34.08;;;;;;;;;;5112903;28;20439;-83
2021/12/24 09:46:20;;;;;;;36.13;32.30;;;;;;;;;;5113240;28;20268;-83
2021/12/24 09:48:47;;;;;;;38.33;34.67;;;;;;;;;;5113012;28;20211;-84
2021/12/24 09:51:15;;;;;;;40.33;35.78;;;;;;;;;;5113041;28;20429;-85
2021/12/24 09:53:44;;;;;;;36.63;32.83;;;;;;;;;;5113029;28;20288;-85
2021/12/24 09:56:11;;;;;;;468.70;181.15;;;;;;;;;;5113390;28;20216;-85
2021/12/24 09:58:38;;;;;;;440.10;156.98;;;;;;;;;;5113155;28;20251;-85
2021/12/24 10:01:06;;;;;;;447.35;152.75;;;;;;;;;;5113169;28;20213;-85
2021/12/24 10:03:35;;;;;;;448.60;152.25;;;;;;;;;;5113260;28;20196;-84
2021/12/24 10:06:03;;;;;;;451.85;153.68;;;;;;;;;;5094626;28;20666;-83
2021/12/24 10:08:30;;;;;;;455.55;152.25;;;;;;;;;;5112567;28;20624;-84
2021/12/24 10:11:03;;;;;;;455.13;158.65;;;;;;;;;;5112779;28;20647;-84
2021/12/24 10:13:33;;;;;;;455.65;155.55;;;;;;;;;;5112439;28;20209;-84
2021/12/24 10:16:02;;;;;;;453.40;186.15;;;;;;;;;;5112614;28;20224;-84
2021/12/24 10:18:35;;;;;;;431.13;156.98;;;;;;;;;;5112949;28;20209;-83
2021/12/24 10:21:04;;;;;;;25.65;23.63;;;;;;;;;;5094179;28;20273;-84
2021/12/24 10:23:42;;;;;;;31.85;28.88;;;;;;;;;;5112781;28;20632;-84
2021/12/24 10:26:15;;;;;;;25.33;23.43;;;;;;;;;;5112425;28;20201;-82
2021/12/24 10:28:49;;;;;;;33.63;30.30;;;;;;;;;;5112195;28;20431;-83
2021/12/24 10:31:18;;;;;;;31.35;28.65;;;;;;;;;;5112482;28;20191;-84
2021/12/24 10:34:00;;;;;;;25.07;23.07;;;;;;;;;;5112026;28;20254;-83
2021/12/24 10:36:28;;;;;;;24.43;22.63;;;;;;;;;;5110868;28;20424;-93
2021/12/24 10:38:56;;;;;;;28.50;25.63;;;;;;;;;;5117251;28;20463;-96
2021/12/24 10:41:25;;;;;;;27.83;25.00;;;;;;;;;;5115285;28;20490;-92
2021/12/24 10:43:53;;;;;;;25.40;23.55;;;;;;;;;;5114393;28;20441;-96
2021/12/24 10:46:22;;;;;;;32.37;27.20;;;;;;;;;;5114889;28;20234;-94
2021/12/24 10:49:02;;;;;;;30.70;27.00;;;;;;;;;;5114015;28;20446;-96
2021/12/24 10:51:54;;;;;;;25.23;22.88;;;;;;;;;;5113567;28;20422;-94
2021/12/24 10:54:21;;;;;;;28.13;25.40;;;;;;;;;;5114529;28;20269;-94
2021/12/24 10:56:50;;;;;;;32.03;29.30;;;;;;;;;;5115231;28;20248;-94
2021/12/24 10:59:37;;;;;;;26.23;24.13;;;;;;;;;;5112545;28;20414;-82
2021/12/24 11:02:09;;;;;;;27.80;25.37;;;;;;;;;;5111593;28;20294;-84
2021/12/24 11:04:36;;;;;;;22.47;20.87;;;;;;;;;;5112052;28;20437;-81
2021/12/24 11:07:04;;;;;;;30.53;27.67;;;;;;;;;;5111502;28;20459;-79
2021/12/24 11:09:31;;;;;;;31.83;29.13;;;;;;;;;;5112223;28;20414;-82
2021/12/24 11:12:00;;;;;;;29.08;26.75;;;;;;;;;;5112448;28;20440;-83
2021/12/24 11:14:31;;;;;;;31.20;28.20;;;;;;;;;;5112187;28;20233;-86
2021/12/24 11:16:58;;;;;;;29.23;26.83;;;;;;;;;;5094440;28;20430;-88
2021/12/24 11:19:28;;;;;;;27.90;25.30;;;;;;;;;;5116431;28;20444;-87
2021/12/24 11:22:04;;;;;;;27.57;25.50;;;;;;;;;;5116951;28;20514;-93
2021/12/24 11:24:31;;;;;;;28.37;25.97;;;;;;;;;;5119321;28;20507;-92
2021/12/24 11:27:00;;;;;;;31.00;28.20;;;;;;;;;;5117027;28;20426;-90
2021/12/24 11:29:28;;;;;;;29.83;26.93;;;;;;;;;;5118284;28;20828;-92
2021/12/24 11:31:56;;;;;;;27.37;25.00;;;;;;;;;;5118544;28;20502;-94
2021/12/24 11:34:24;;;;;;;462.92;169.35;;;;;;;;;;5098729;28;20425;-86
2021/12/24 11:36:51;;;;;;;342.98;126.78;;;;;;;;;;5100984;28;20205;-88
2021/12/24 11:39:19;;;;;;;442.75;160.05;;;;;;;;;;5081550;28;20277;-83
2021/12/24 11:41:46;;;;;;;452.33;152.85;;;;;;;;;;5116008;28;20228;-80
2021/12/24 11:44:17;;;;;;;448.25;149.73;;;;;;;;;;5116184;28;20746;-83
2021/12/24 11:46:45;;;;;;;28.85;26.48;;;;;;;;;;5115609;28;20711;-84
2021/12/24 11:49:12;;;;;;;424.38;154.10;;;;;;;;;;5115886;28;20182;-86
2021/12/24 11:51:40;;;;;;;29.07;26.27;;;;;;;;;;5115616;28;20217;-83
2021/12/24 11:54:08;;;;;;;33.55;30.35;;;;;;;;;;5115544;28;20433;-82
2021/12/24 11:56:40;;;;;;;26.87;24.90;;;;;;;;;;5115440;28;20193;-81
2021/12/24 11:59:08;;;;;;;30.37;27.40;;;;;;;;;;5115563;28;20443;-82
2021/12/24 12:01:40;;;;;;;450.48;151.05;;;;;;;;;;5115261;28;20449;-82
2021/12/24 12:04:13;;;;;;;25.30;23.30;;;;;;;;;;5115238;28;20202;-82
2021/12/24 12:06:40;;;;;;;446.17;149.82;;;;;;;;;;5115281;28;20439;-81
2021/12/24 12:09:10;;;;;;;30.17;27.52;;;;;;;;;;5114986;28;20189;-82
2021/12/24 12:11:39;;;;;;;29.90;27.13;;;;;;;;;;5115126;28;20185;-82
2021/12/24 12:14:08;;;;;;;445.30;147.35;;;;;;;;;;5114669;28;20466;-81
2021/12/24 12:16:50;;;;;;;31.58;28.52;;;;;;;;;;5115118;28;20210;-82
2021/12/24 12:19:23;;;;;;;32.20;29.20;;;;;;;;;;5115399;28;20185;-83
2021/12/24 12:22:15;;;;;;;24.63;22.73;;;;;;;;;;5115241;28;20482;-83
2021/12/24 12:27:29;;;;;;;27.43;25.30;;;;;;;;;;5114808;28;20431;-82
2021/12/24 12:29:56;;;;;;;24.53;22.67;;;;;;;;;;5114940;28;20844;-82
2021/12/24 12:32:41;;;;;;;26.83;24.77;;;;;;;;;;5114754;28;20422;-83
2021/12/24 12:35:10;;;;;;;29.60;26.70;;;;;;;;;;5115758;28;20425;-82
2021/12/24 12:37:49;;;;;;;25.25;23.15;;;;;;;;;;5114745;28;20768;-83
2021/12/24 12:40:30;;;;;;;22.97;21.27;;;;;;;;;;5114638;28;20246;-83
2021/12/24 12:43:05;;;;;;;23.97;22.47;;;;;;;;;;5117992;28;20503;-81
2021/12/24 12:45:56;;;;;;;27.80;25.40;;;;;;;;;;5117398;28;20424;-82
2021/12/24 12:48:26;;;;;;;24.00;21.88;;;;;;;;;;5117958;28;20418;-82
2021/12/24 12:50:56;;;;;;;26.00;23.97;;;;;;;;;;5125662;28;20269;-83
2021/12/24 12:53:28;;;;;;;26.13;24.23;;;;;;;;;;5122862;28;20422;-83
2021/12/24 12:56:12;;;;;;;24.70;22.80;;;;;;;;;;5122983;28;20444;-82
2021/12/24 12:58:40;;;;;;;26.73;24.70;;;;;;;;;;5123065;28;20915;-82
2021/12/24 13:01:10;;;;;;;29.00;26.65;;;;;;;;;;5118470;28;20448;-81
2021/12/24 13:04:03;;;;;;;26.52;24.48;;;;;;;;;;5116347;28;20212;-82
2021/12/24 13:06:55;;;;;;;23.97;22.20;;;;;;;;;;5116803;28;20197;-82
2021/12/24 13:09:24;;;;;;;23.50;21.80;;;;;;;;;;5121025;28;20497;-82
2021/12/24 13:11:52;;;;;;;25.05;23.10;;;;;;;;;;5121081;28;20443;-82
2021/12/24 13:14:20;;;;;;;26.75;24.55;;;;;;;;;;5117284;28;20252;-82
2021/12/24 13:16:51;;;;;;;27.17;25.10;;;;;;;;;;5119615;28;20193;-82
2021/12/24 13:19:44;;;;;;;23.38;21.73;;;;;;;;;;5121124;28;20685;-81
2021/12/24 13:22:29;;;;;;;23.00;21.50;;;;;;;;;;5122810;28;20277;-81
2021/12/24 13:25:04;;;;;;;24.52;22.63;;;;;;;;;;5122810;28;20196;-82
2021/12/24 13:27:41;;;;;;;24.25;22.63;;;;;;;;;;5125999;28;20247;-82
2021/12/24 13:30:11;;;;;;;22.70;21.10;;;;;;;;;;5118125;28;20188;-81
2021/12/24 13:32:39;;;;;;;24.70;22.92;;;;;;;;;;5096153;28;20464;-81
2021/12/24 13:35:07;;;;;;;25.15;23.05;;;;;;;;;;5114957;28;20235;-81
2021/12/24 13:37:39;;;;;;;21.85;20.48;;;;;;;;;;5115623;28;20544;-80
2021/12/24 13:40:09;;;;;;;24.25;22.30;;;;;;;;;;5118616;28;20229;-81
2021/12/24 13:42:48;;;;;;;24.47;22.87;;;;;;;;;;5114148;28;20206;-81
2021/12/24 13:45:16;;;;;;;22.67;21.08;;;;;;;;;;5115689;28;20871;-81
2021/12/24 13:47:54;;;;;;;22.27;20.73;;;;;;;;;;5116927;28;20611;-83
2021/12/24 13:54:31;;;;;;;443.52;149.32;;;;;;;;;;5114799;28;20447;-82
2021/12/24 13:56:08;;;;;;;26.37;23.73;;;;;;;;;;5115064;28;20539;-82
2021/12/24 13:58:35;;;;;;;24.00;22.17;;;;;;;;;;5115633;28;20458;-81
2021/12/24 14:01:04;;;;;;;23.53;21.53;;;;;;;;;;5115834;28;20437;-82
2021/12/24 14:03:32;;;;;;;28.05;25.80;;;;;;;;;;5115822;28;20479;-82
2021/12/24 14:06:01;;;;;;;27.23;24.93;;;;;;;;;;5115433;28;20197;-82
2021/12/24 14:08:30;;;;;;;26.73;24.13;;;;;;;;;;5115629;28;20767;-81
2021/12/24 14:11:08;;;;;;;27.35;25.15;;;;;;;;;;5113327;28;20430;-82
2021/12/24 14:13:39;;;;;;;37.17;34.22;;;;;;;;;;5113785;28;20224;-81
2021/12/24 14:16:17;;;;;;;31.90;29.47;;;;;;;;;;5115865;28;20212;-96
2021/12/24 14:18:49;;;;;;;34.33;31.03;;;;;;;;;;5124223;28;20450;-96
2021/12/24 14:26:54;;;;;;;377.90;142.65;;;;;;;;;;5083156;28;20437;-96
2021/12/24 14:29:26;;;;;;;441.70;161.35;;;;;;;;;;5082559;28;20206;-96
2021/12/24 14:31:55;;;;;;;454.45;166.10;;;;;;;;;;5082610;28;20195;-96
2021/12/24 14:34:33;;;;;;;430.25;153.00;;;;;;;;;;5080179;28;20210;-85
2021/12/24 14:37:03;;;;;;;426.15;150.75;;;;;;;;;;5081045;28;20203;-86
2021/12/24 14:39:39;;;;;;;426.00;150.98;;;;;;;;;;5081971;28;20195;-81
2021/12/24 14:42:20;;;;;;;420.20;139.95;;;;;;;;;;5080040;28;20279;-84
2021/12/24 14:44:49;;;;;;;442.73;186.50;;;;;;;;;;5083185;28;20214;-91
2021/12/24 14:47:19;;;;;;;440.67;159.13;;;;;;;;;;5082965;28;20199;-85
2021/12/24 14:49:46;;;;;;;414.38;143.15;;;;;;;;;;5082888;28;20195;-87
2021/12/24 14:52:18;;;;;;;427.17;147.55;;;;;;;;;;5083205;28;20193;-87
2021/12/24 14:55:04;;;;;;;429.60;147.70;;;;;;;;;;5086113;28;20241;-83
2021/12/24 14:57:33;;;;;;;433.33;145.15;;;;;;;;;;5086669;28;20202;-83
2021/12/24 15:00:05;;;;;;;418.83;141.73;;;;;;;;;;5070848;28;20648;-87
2021/12/24 15:02:34;;;;;;;411.90;140.43;;;;;;;;;;5063306;28;20266;-85
2021/12/24 15:05:02;;;;;;;412.13;140.13;;;;;;;;;;5063518;28;20189;-85
2021/12/24 15:07:31;;;;;;;22.77;21.47;;;;;;;;;;5059861;28;20188;-80
2021/12/24 15:10:18;;;;;;;25.37;24.07;;;;;;;;;;5058653;28;20817;-80
2021/12/24 15:12:58;;;;;;;25.17;23.77;;;;;;;;;;5056733;28;20979;-80
2021/12/24 15:15:26;;;;;;;33.35;30.77;;;;;;;;;;5058385;28;20455;-80
2021/12/24 15:17:53;;;;;;;35.17;33.03;;;;;;;;;;5057466;28;20184;-80
2021/12/24 15:20:22;;;;;;;38.67;36.47;;;;;;;;;;5056450;28;20233;-79
2021/12/24 15:22:50;;;;;;;36.05;34.05;;;;;;;;;;5057876;28;20219;-79
2021/12/24 15:25:18;;;;;;;35.60;33.60;;;;;;;;;;5057224;28;20199;-79
2021/12/24 15:27:47;;;;;;;35.13;33.13;;;;;;;;;;5075164;28;20438;-80
2021/12/24 15:30:15;;;;;;;36.55;34.33;;;;;;;;;;5058137;28;20294;-81
2021/12/24 15:32:42;;;;;;;41.58;39.38;;;;;;;;;;5039071;28;20712;-81
2021/12/24 15:35:10;;;;;;;42.33;39.72;;;;;;;;;;5056892;28;20190;-81
2021/12/24 15:37:39;;;;;;;36.90;34.70;;;;;;;;;;5056920;28;20211;-81
2021/12/24 15:40:06;;;;;;;39.10;36.72;;;;;;;;;;5056155;28;20207;-80
2021/12/24 15:42:34;;;;;;;35.30;33.20;;;;;;;;;;5057329;28;20773;-79
2021/12/24 15:45:03;;;;;;;38.58;36.17;;;;;;;;;;5057206;28;20206;-80
2021/12/24 15:47:30;;;;;;;38.00;35.72;;;;;;;;;;5055828;28;20214;-80
2021/12/24 15:49:57;;;;;;;38.58;36.33;;;;;;;;;;5057126;28;20623;-80